Time;durP1;ratioP1;P1;durP2;ratioP2;P2;SDS_P1;SDS_P2;PMS_P1;PMS_P2;Temp;Humidity;BMP_temperature;BMP_pressure;BME280_temperature;BME280_humidity;BME280_pressure;Samples;Min_cycle;Max_cycle;Signal;HPM_P1;HPM_P2
2021/03/16 00:00:03;;;;;;;1.43;1.07;;;18.00;24.40;;;;;;5096479;28;20153;-52
2021/03/16 00:02:31;;;;;;;1.45;0.90;;;17.90;24.30;;;;;;5115037;28;20402;-53
2021/03/16 00:04:57;;;;;;;1.05;0.85;;;18.00;24.40;;;;;;5114819;28;20272;-52
2021/03/16 00:07:22;;;;;;;1.00;0.80;;;18.00;24.40;;;;;;5114970;28;20561;-53
2021/03/16 00:09:48;;;;;;;1.37;1.00;;;17.90;24.40;;;;;;5114786;28;20505;-53
2021/03/16 00:12:14;;;;;;;1.00;0.90;;;18.00;24.40;;;;;;5115032;28;20651;-53
2021/03/16 00:14:39;;;;;;;1.53;1.07;;;17.90;24.90;;;;;;5113920;28;20244;-51
2021/03/16 00:17:05;;;;;;;1.17;1.07;;;18.00;24.40;;;;;;5114861;28;20226;-52
2021/03/16 00:19:31;;;;;;;1.20;0.93;;;18.00;24.40;;;;;;5114734;28;20624;-52
2021/03/16 00:21:59;;;;;;;1.30;0.95;;;18.00;24.40;;;;;;5114535;28;20212;-53
2021/03/16 00:24:25;;;;;;;0.90;0.80;;;17.90;24.30;;;;;;5114688;28;20209;-53
2021/03/16 00:26:50;;;;;;;1.53;1.10;;;18.00;24.40;;;;;;5114699;28;20505;-53
2021/03/16 00:29:22;;;;;;;0.93;0.80;;;17.90;24.30;;;;;;5114076;28;20194;-53
2021/03/16 00:31:48;;;;;;;2.70;1.10;;;18.00;24.40;;;;;;5114651;28;20157;-52
2021/03/16 00:34:13;;;;;;;1.00;0.80;;;18.00;24.40;;;;;;5114281;28;20168;-52
2021/03/16 00:36:39;;;;;;;1.00;0.80;;;17.90;24.30;;;;;;5114461;28;20161;-52
2021/03/16 00:39:07;;;;;;;1.30;1.10;;;17.90;24.30;;;;;;5114367;28;20161;-52
2021/03/16 00:41:33;;;;;;;1.10;0.90;;;17.90;24.30;;;;;;5114444;28;20165;-52
2021/03/16 00:44:00;;;;;;;1.03;0.90;;;17.90;24.30;;;;;;5113685;28;20185;-52
2021/03/16 00:46:26;;;;;;;1.27;1.00;;;18.00;24.40;;;;;;5114349;28;20187;-52
2021/03/16 00:48:51;;;;;;;1.07;0.97;;;17.90;24.30;;;;;;5113988;28;20149;-52
2021/03/16 00:51:20;;;;;;;1.13;0.97;;;17.90;24.30;;;;;;5114129;28;20555;-52
2021/03/16 00:53:46;;;;;;;1.10;0.90;;;18.00;24.90;;;;;;5114089;28;20203;-52
2021/03/16 00:56:11;;;;;;;1.20;0.90;;;17.90;24.30;;;;;;5114216;28;20161;-52
2021/03/16 00:58:37;;;;;;;2.17;1.10;;;17.90;24.30;;;;;;5113879;28;20148;-52
2021/03/16 01:01:06;;;;;;;1.30;1.10;;;17.90;24.30;;;;;;5113644;28;20948;-52
2021/03/16 01:03:32;;;;;;;1.95;1.10;;;18.00;24.30;;;;;;5113869;28;20643;-53
2021/03/16 01:05:58;;;;;;;1.13;1.02;;;17.90;24.30;;;;;;5114280;28;20163;-52
2021/03/16 01:08:24;;;;;;;1.00;0.87;;;17.90;24.30;;;;;;5114125;28;20598;-53
2021/03/16 01:10:51;;;;;;;3.27;1.30;;;17.90;24.30;;;;;;5113823;28;20402;-53
2021/03/16 01:13:19;;;;;;;1.33;1.00;;;17.90;24.30;;;;;;5129846;28;20176;-53
2021/03/16 01:15:44;;;;;;;0.80;0.80;;;17.90;24.30;;;;;;5113382;28;20157;-53
2021/03/16 01:18:11;;;;;;;0.90;0.80;;;17.90;24.30;;;;;;5114064;28;20157;-53
2021/03/16 01:20:37;;;;;;;0.82;0.80;;;17.90;24.30;;;;;;5114023;28;20181;-53
2021/03/16 01:23:04;;;;;;;1.60;1.00;;;17.90;24.30;;;;;;5113948;28;20286;-52
2021/03/16 01:25:30;;;;;;;1.33;1.00;;;17.90;24.30;;;;;;5114299;28;20381;-52
2021/03/16 01:27:56;;;;;;;1.00;0.90;;;17.90;24.30;;;;;;5133920;27;20615;-52
2021/03/16 01:30:23;;;;;;;1.10;1.00;;;17.90;24.30;;;;;;5099289;28;20507;-52
2021/03/16 01:32:53;;;;;;;1.65;0.95;;;17.90;24.30;;;;;;5118071;28;20149;-52
2021/03/16 01:35:22;;;;;;;0.82;0.70;;;17.90;24.30;;;;;;5118094;28;20157;-52
2021/03/16 01:38:00;;;;;;;1.13;0.60;;;17.90;24.30;;;;;;5117887;28;20154;-52
2021/03/16 01:40:39;;;;;;;1.10;0.90;;;17.90;24.30;;;;;;5117841;28;20218;-52
2021/03/16 01:43:15;;;;;;;1.20;0.80;;;17.90;24.30;;;;;;5117943;28;20146;-52
2021/03/16 01:45:43;;;;;;;1.20;0.93;;;17.90;24.80;;;;;;5117131;28;20505;-52
2021/03/16 01:48:11;;;;;;;1.25;1.10;;;17.90;24.30;;;;;;5117734;28;20543;-52
2021/03/16 01:50:37;;;;;;;1.10;1.00;;;17.90;24.30;;;;;;5117531;28;20252;-52
2021/03/16 01:53:03;;;;;;;1.92;1.33;;;17.90;24.30;;;;;;5117541;28;20158;-52
2021/03/16 01:55:30;;;;;;;1.83;1.13;;;17.90;24.30;;;;;;5117430;28;20546;-52
2021/03/16 01:57:57;;;;;;;1.20;1.10;;;17.90;24.30;;;;;;5117460;28;20157;-53
2021/03/16 02:00:26;;;;;;;2.33;1.23;;;17.90;24.30;;;;;;5117002;28;20158;-52
2021/03/16 02:02:52;;;;;;;0.70;0.70;;;17.90;24.30;;;;;;5117345;28;20247;-52
2021/03/16 02:05:20;;;;;;;0.80;0.70;;;17.90;24.30;;;;;;5117265;28;20245;-52
2021/03/16 02:08:30;;;;;;;1.23;0.85;;;17.90;24.30;;;;;;5117314;28;20211;-52
2021/03/16 02:11:02;;;;;;;2.17;1.00;;;17.90;24.30;;;;;;5034177;28;20254;-52
2021/03/16 02:13:47;;;;;;;0.95;0.85;;;17.90;24.30;;;;;;5034614;28;20287;-52
2021/03/16 02:16:24;;;;;;;1.13;1.00;;;17.90;24.30;;;;;;5088654;28;20212;-52
2021/03/16 02:18:54;;;;;;;0.73;0.73;;;17.90;24.30;;;;;;5116846;28;20145;-52
2021/03/16 02:21:26;;;;;;;1.02;0.70;;;17.90;24.30;;;;;;5116984;28;20575;-52
2021/03/16 02:24:08;;;;;;;0.98;0.63;;;17.90;24.30;;;;;;5116755;28;20658;-53
2021/03/16 02:26:52;;;;;;;0.90;0.90;;;17.90;24.30;;;;;;5117067;28;20179;-52
2021/03/16 02:29:35;;;;;;;0.80;0.75;;;17.90;24.30;;;;;;5116848;28;20172;-52
2021/03/16 02:32:08;;;;;;;1.50;1.08;;;17.90;24.30;;;;;;5116769;28;20675;-51
2021/03/16 02:34:36;;;;;;;0.98;0.90;;;17.90;24.30;;;;;;5116704;28;20172;-52
2021/03/16 02:37:06;;;;;;;1.92;0.82;;;17.90;24.30;;;;;;5116522;28;20149;-52
2021/03/16 02:39:33;;;;;;;1.00;0.65;;;18.00;24.40;;;;;;5116360;28;20201;-51
2021/03/16 02:42:02;;;;;;;1.38;1.00;;;17.90;24.40;;;;;;5116661;28;20160;-52
2021/03/16 02:44:29;;;;;;;1.15;0.85;;;17.90;24.30;;;;;;5115890;28;20189;-52
2021/03/16 02:46:56;;;;;;;1.15;0.85;;;17.90;24.30;;;;;;5116645;28;20609;-52
2021/03/16 02:49:25;;;;;;;1.30;1.00;;;17.90;24.40;;;;;;5116323;28;20248;-52
2021/03/16 02:51:52;;;;;;;1.10;1.00;;;17.90;24.40;;;;;;5116459;28;20241;-52
2021/03/16 02:54:21;;;;;;;1.15;1.05;;;17.90;24.40;;;;;;5116355;28;20166;-52
2021/03/16 02:56:49;;;;;;;0.90;0.90;;;17.90;24.40;;;;;;5116162;28;20632;-52
2021/03/16 02:59:16;;;;;;;1.00;0.90;;;18.00;24.50;;;;;;5115831;28;20162;-53
2021/03/16 03:01:44;;;;;;;0.80;0.70;;;17.90;24.50;;;;;;5116213;28;20679;-53
2021/03/16 03:04:13;;;;;;;0.50;0.50;;;18.00;24.50;;;;;;5116147;28;20197;-52
2021/03/16 03:06:40;;;;;;;0.75;0.60;;;17.90;24.50;;;;;;5116231;28;20149;-53
2021/03/16 03:09:09;;;;;;;1.17;0.95;;;18.00;24.60;;;;;;5131918;27;20183;-53
2021/03/16 03:11:37;;;;;;;0.90;0.80;;;17.90;24.50;;;;;;5116200;28;20580;-53
2021/03/16 03:14:07;;;;;;;1.05;0.95;;;18.00;24.50;;;;;;5115472;28;20232;-53
2021/03/16 03:16:33;;;;;;;1.75;0.80;;;17.90;24.50;;;;;;5115946;28;20165;-53
2021/03/16 03:18:59;;;;;;;0.80;0.75;;;18.00;24.50;;;;;;5115828;28;20161;-53
2021/03/16 03:21:30;;;;;;;1.00;0.73;;;18.00;24.50;;;;;;5115830;28;20278;-53
2021/03/16 03:24:04;;;;;;;1.35;1.00;;;18.00;24.50;;;;;;5115636;28;20488;-52
2021/03/16 03:26:56;;;;;;;0.95;0.80;;;18.00;24.50;;;;;;5115740;28;20149;-52
2021/03/16 03:29:28;;;;;;;1.10;0.95;;;18.00;24.50;;;;;;5078532;28;20173;-52
2021/03/16 03:31:56;;;;;;;1.13;0.95;;;18.00;24.50;;;;;;5115665;28;20173;-52
2021/03/16 03:34:22;;;;;;;0.88;0.73;;;18.00;24.60;;;;;;5115596;28;20191;-52
2021/03/16 03:36:53;;;;;;;1.63;1.00;;;18.00;24.50;;;;;;5115475;28;20153;-51
2021/03/16 03:39:21;;;;;;;1.13;1.02;;;18.00;24.50;;;;;;5115542;28;20153;-52
2021/03/16 03:41:50;;;;;;;2.05;0.93;;;18.00;24.50;;;;;;5115477;28;20145;-52
2021/03/16 03:44:17;;;;;;;0.82;0.82;;;18.00;24.50;;;;;;5114743;28;20185;-52
2021/03/16 03:46:45;;;;;;;0.80;0.73;;;18.10;24.50;;;;;;5115215;28;20283;-52
2021/03/16 03:49:12;;;;;;;1.00;0.88;;;18.00;24.50;;;;;;5114463;28;20146;-51
2021/03/16 03:51:38;;;;;;;1.83;1.08;;;18.00;24.50;;;;;;5115275;28;20153;-52
2021/03/16 03:54:05;;;;;;;0.95;0.88;;;18.00;24.50;;;;;;5115170;28;20164;-52
2021/03/16 03:56:34;;;;;;;1.70;0.80;;;18.00;24.50;;;;;;5115362;28;20153;-52
2021/03/16 03:59:02;;;;;;;0.98;0.80;;;18.10;24.50;;;;;;5114529;28;20161;-52
2021/03/16 04:01:30;;;;;;;0.95;0.70;;;18.10;24.50;;;;;;5115281;28;20507;-52
2021/03/16 04:03:56;;;;;;;0.70;0.68;;;18.10;24.50;;;;;;5114790;28;20219;-52
2021/03/16 04:06:24;;;;;;;1.10;0.70;;;18.10;24.50;;;;;;5115030;28;20199;-52
2021/03/16 04:08:51;;;;;;;1.55;1.38;;;18.10;24.50;;;;;;5114833;28;20154;-52
2021/03/16 04:11:18;;;;;;;0.75;0.70;;;18.10;24.50;;;;;;5115006;28;20177;-52
2021/03/16 04:13:45;;;;;;;1.65;0.80;;;18.10;24.50;;;;;;5114859;28;20168;-52
2021/03/16 04:16:12;;;;;;;0.95;0.82;;;18.10;24.40;;;;;;5114390;28;20170;-52
2021/03/16 04:18:39;;;;;;;0.80;0.70;;;18.10;24.40;;;;;;5114803;28;20280;-52
2021/03/16 04:21:11;;;;;;;1.40;0.88;;;18.10;24.50;;;;;;5114303;28;20604;-52
2021/03/16 04:23:37;;;;;;;1.15;0.80;;;18.10;24.40;;;;;;5097040;28;20188;-52
2021/03/16 04:26:03;;;;;;;1.23;1.10;;;18.10;24.40;;;;;;5114678;28;20244;-52
2021/03/16 04:28:29;;;;;;;0.88;0.80;;;18.10;24.40;;;;;;5114713;28;20153;-52
2021/03/16 04:30:54;;;;;;;0.67;0.63;;;18.10;24.40;;;;;;5114036;28;20454;-52
2021/03/16 04:33:20;;;;;;;2.30;1.20;;;18.10;25.00;;;;;;5114784;28;20168;-52
2021/03/16 04:35:46;;;;;;;1.00;0.90;;;18.10;24.40;;;;;;5114365;28;20644;-52
2021/03/16 04:38:13;;;;;;;0.80;0.77;;;18.10;24.40;;;;;;5114402;28;20172;-52
2021/03/16 04:40:39;;;;;;;1.70;1.00;;;18.10;24.40;;;;;;5114526;28;20187;-52
2021/03/16 04:43:05;;;;;;;1.10;0.85;;;18.10;24.40;;;;;;5114463;28;20157;-52
2021/03/16 04:45:31;;;;;;;0.80;0.65;;;18.10;24.40;;;;;;5113943;28;20623;-52
2021/03/16 04:47:57;;;;;;;1.03;0.90;;;18.20;24.40;;;;;;5114427;28;20162;-52
2021/03/16 04:50:22;;;;;;;1.13;1.03;;;18.20;24.40;;;;;;5113939;28;20168;-52
2021/03/16 04:52:50;;;;;;;1.13;0.80;;;18.20;24.40;;;;;;5114308;28;20358;-55
2021/03/16 04:55:16;;;;;;;0.70;0.65;;;18.20;24.40;;;;;;5096078;28;20190;-56
2021/03/16 04:57:41;;;;;;;1.00;0.90;;;18.20;24.40;;;;;;5114035;28;20161;-56
2021/03/16 05:00:08;;;;;;;1.33;0.87;;;18.20;24.40;;;;;;5112758;28;20204;-56
2021/03/16 05:02:37;;;;;;;1.17;0.98;;;18.20;24.40;;;;;;5114167;28;20217;-56
2021/03/16 05:05:06;;;;;;;1.10;1.00;;;18.20;24.40;;;;;;5113781;28;20184;-56
2021/03/16 05:07:34;;;;;;;1.52;1.02;;;18.20;24.40;;;;;;5114137;28;20286;-57
2021/03/16 05:10:00;;;;;;;0.90;0.80;;;18.20;24.30;;;;;;5114077;28;20606;-56
2021/03/16 05:12:26;;;;;;;1.00;0.80;;;18.20;24.30;;;;;;5114439;28;20244;-56
2021/03/16 05:14:52;;;;;;;1.73;1.27;;;18.20;24.30;;;;;;5113546;28;20864;-57
2021/03/16 05:17:21;;;;;;;1.13;0.77;;;18.20;24.30;;;;;;5129974;28;20267;-56
2021/03/16 05:19:46;;;;;;;1.08;0.82;;;18.20;24.30;;;;;;5113776;28;20426;-57
2021/03/16 05:22:12;;;;;;;0.83;0.77;;;18.20;24.30;;;;;;5114023;28;20687;-57
2021/03/16 05:24:37;;;;;;;1.00;0.90;;;18.20;24.30;;;;;;5113760;28;20188;-57
2021/03/16 05:27:06;;;;;;;1.57;0.93;;;18.20;24.30;;;;;;5114025;28;20156;-56
2021/03/16 05:29:31;;;;;;;0.90;0.70;;;18.20;24.20;;;;;;5113326;28;20158;-56
2021/03/16 05:31:57;;;;;;;0.90;0.70;;;18.20;24.30;;;;;;5113810;28;20173;-56
2021/03/16 05:34:23;;;;;;;0.90;0.77;;;18.20;24.30;;;;;;5113724;28;20162;-56
2021/03/16 05:36:48;;;;;;;1.13;0.90;;;18.20;24.30;;;;;;5113789;28;20244;-56
2021/03/16 05:39:14;;;;;;;1.00;0.90;;;18.20;24.30;;;;;;5113852;28;20157;-57
2021/03/16 05:41:41;;;;;;;0.93;0.70;;;18.20;24.20;;;;;;5095649;28;20181;-56
2021/03/16 05:44:07;;;;;;;0.90;0.70;;;18.20;24.30;;;;;;5113283;28;20189;-56
2021/03/16 05:46:38;;;;;;;0.95;0.77;;;18.20;24.30;;;;;;5113673;28;20157;-56
2021/03/16 05:49:06;;;;;;;0.85;0.77;;;18.20;24.20;;;;;;5113590;28;20183;-57
2021/03/16 05:51:36;;;;;;;1.25;0.95;;;18.30;24.30;;;;;;5113684;28;20523;-56
2021/03/16 05:54:05;;;;;;;2.35;0.88;;;18.20;24.20;;;;;;5113604;28;20165;-57
2021/03/16 05:56:32;;;;;;;1.65;1.05;;;18.20;24.20;;;;;;5113402;28;20169;-55
2021/03/16 05:58:59;;;;;;;1.52;0.80;;;18.20;24.20;;;;;;5112989;28;20160;-56
2021/03/16 06:01:24;;;;;;;1.30;0.90;;;18.20;24.20;;;;;;5113440;28;20203;-56
2021/03/16 06:03:50;;;;;;;0.70;0.60;;;18.20;24.20;;;;;;5113388;28;20188;-56
2021/03/16 06:06:16;;;;;;;0.83;0.80;;;18.20;24.20;;;;;;5113531;28;20546;-57
2021/03/16 06:08:42;;;;;;;0.87;0.80;;;18.20;24.20;;;;;;5113360;28;20161;-57
2021/03/16 06:11:09;;;;;;;1.17;0.75;;;18.30;24.30;;;;;;5113361;28;20164;-57
2021/03/16 06:13:35;;;;;;;2.08;1.08;;;18.30;24.20;;;;;;5117077;28;20155;-57
2021/03/16 06:16:14;;;;;;;1.70;0.70;;;18.30;24.40;;;;;;5116474;28;20267;-56
2021/03/16 06:18:44;;;;;;;0.80;0.80;;;18.30;24.20;;;;;;5116856;28;20157;-56
2021/03/16 06:21:16;;;;;;;0.70;0.68;;;18.30;24.20;;;;;;5116768;28;20213;-57
2021/03/16 06:23:54;;;;;;;0.80;0.70;;;18.30;24.20;;;;;;5116619;28;20279;-56
2021/03/16 06:26:22;;;;;;;1.52;1.05;;;18.30;24.20;;;;;;5116902;28;20192;-56
2021/03/16 06:28:50;;;;;;;1.90;0.88;;;18.30;24.20;;;;;;5116785;28;20248;-57
2021/03/16 06:31:25;;;;;;;1.70;1.33;;;18.30;24.20;;;;;;5116407;28;20153;-57
2021/03/16 06:33:51;;;;;;;0.85;0.80;;;18.30;24.20;;;;;;5116523;28;20164;-56
2021/03/16 06:36:17;;;;;;;1.17;0.80;;;18.30;24.20;;;;;;5116551;28;20164;-56
2021/03/16 06:38:42;;;;;;;0.60;0.60;;;18.30;24.20;;;;;;5116805;28;20180;-57
2021/03/16 06:41:11;;;;;;;2.33;1.20;;;18.30;24.20;;;;;;5116453;28;20415;-56
2021/03/16 06:43:38;;;;;;;1.27;0.70;;;18.30;24.20;;;;;;5116476;28;20192;-56
2021/03/16 06:46:04;;;;;;;1.25;0.80;;;18.30;24.20;;;;;;5115662;28;20203;-56
2021/03/16 06:48:37;;;;;;;0.65;0.60;;;18.30;24.20;;;;;;5116410;28;20176;-56
2021/03/16 06:51:14;;;;;;;1.27;0.80;;;18.30;24.20;;;;;;5115984;28;20173;-56
2021/03/16 06:53:42;;;;;;;1.05;0.73;;;18.30;24.20;;;;;;5116291;28;20170;-57
2021/03/16 06:56:10;;;;;;;0.98;0.75;;;18.30;24.20;;;;;;5115999;28;20161;-57
2021/03/16 06:58:36;;;;;;;0.80;0.68;;;18.30;24.20;;;;;;5098157;28;20169;-56
2021/03/16 07:01:06;;;;;;;1.20;0.90;;;18.30;24.20;;;;;;5115398;28;20168;-57
2021/03/16 07:03:32;;;;;;;2.85;1.10;;;18.30;24.20;;;;;;5115996;28;20180;-56
2021/03/16 07:06:20;;;;;;;0.80;0.70;;;18.30;24.20;;;;;;5115892;28;20149;-55
2021/03/16 07:08:49;;;;;;;1.13;1.02;;;18.40;24.20;;;;;;5115964;28;20161;-57
2021/03/16 07:11:21;;;;;;;1.15;0.75;;;18.40;24.20;;;;;;5115924;28;20286;-56
2021/03/16 07:13:47;;;;;;;1.00;0.77;;;18.40;24.20;;;;;;5115589;28;20164;-57
2021/03/16 07:16:14;;;;;;;1.02;0.93;;;18.40;24.20;;;;;;5115472;28;20163;-56
2021/03/16 07:18:46;;;;;;;1.00;0.82;;;18.40;24.20;;;;;;5115766;28;20177;-57
2021/03/16 07:21:27;;;;;;;3.75;1.10;;;18.40;24.20;;;;;;5115288;28;20216;-57
2021/03/16 07:24:00;;;;;;;2.40;1.00;;;18.40;24.20;;;;;;5114507;28;20546;-56
2021/03/16 07:26:26;;;;;;;2.00;1.30;;;18.40;24.20;;;;;;5115626;28;20145;-56
2021/03/16 07:28:52;;;;;;;5.33;2.33;;;18.40;24.00;;;;;;5088946;27;20524;-58
2021/03/16 07:31:18;;;;;;;4.88;1.83;;;17.50;18.60;;;;;;5100198;27;20185;-56
2021/03/16 07:33:44;;;;;;;3.45;1.40;;;16.60;21.90;;;;;;5106303;28;20170;-55
2021/03/16 07:36:10;;;;;;;3.67;2.07;;;16.50;25.30;;;;;;5101909;28;20490;-56
2021/03/16 07:38:38;;;;;;;1.88;1.50;;;16.70;25.80;;;;;;5099989;28;20410;-56
2021/03/16 07:41:05;;;;;;;2.40;1.80;;;16.80;25.40;;;;;;5107170;27;20185;-55
2021/03/16 07:43:36;;;;;;;4.95;1.90;;;17.00;25.30;;;;;;5103239;27;20253;-55
2021/03/16 07:46:18;;;;;;;3.53;1.80;;;17.20;25.30;;;;;;5104721;28;20193;-54
2021/03/16 07:48:59;;;;;;;3.53;1.70;;;17.40;25.20;;;;;;5097804;28;20184;-55
2021/03/16 07:51:33;;;;;;;5.03;1.60;;;17.60;25.10;;;;;;5102727;27;20165;-56
2021/03/16 07:54:06;;;;;;;3.03;1.70;;;17.70;25.10;;;;;;5101507;28;20173;-55
2021/03/16 07:56:34;;;;;;;1.75;1.27;;;17.80;25.00;;;;;;5105665;28;20261;-57
2021/03/16 07:59:01;;;;;;;1.90;1.50;;;17.90;25.00;;;;;;5098286;28;20276;-55
2021/03/16 08:01:27;;;;;;;2.80;1.33;;;18.00;24.90;;;;;;5087697;28;20185;-56
2021/03/16 08:04:10;;;;;;;5.60;1.50;;;18.80;25.20;;;;;;5101825;28;20192;-57
2021/03/16 08:06:38;;;;;;;2.60;1.70;;;18.20;24.70;;;;;;5107939;28;20274;-56
2021/03/16 08:09:05;;;;;;;3.95;2.03;;;18.20;24.40;;;;;;5103909;28;20617;-57
2021/03/16 08:11:40;;;;;;;4.38;1.80;;;18.30;24.30;;;;;;5100963;28;20242;-57
2021/03/16 08:14:06;;;;;;;2.75;1.70;;;18.30;24.40;;;;;;5106017;28;20280;-57
2021/03/16 08:16:38;;;;;;;4.20;1.90;;;18.40;24.50;;;;;;5107938;28;20164;-56
2021/03/16 08:19:34;;;;;;;5.15;1.55;;;18.40;24.60;;;;;;5113139;28;20265;-55
2021/03/16 08:22:01;;;;;;;2.72;1.80;;;18.50;24.70;;;;;;5105885;28;20637;-56
2021/03/16 08:24:40;;;;;;;3.40;1.70;;;18.50;24.80;;;;;;5108948;28;20192;-56
2021/03/16 08:27:19;;;;;;;6.28;2.03;;;18.50;24.80;;;;;;5113475;28;20153;-56
2021/03/16 08:29:49;;;;;;;2.95;1.90;;;18.60;24.70;;;;;;5112242;28;20169;-57
2021/03/16 08:32:17;;;;;;;4.57;2.13;;;18.60;24.70;;;;;;5093390;28;20640;-56
2021/03/16 08:34:44;;;;;;;3.20;2.08;;;18.60;24.70;;;;;;5097832;28;20170;-57
2021/03/16 08:37:22;;;;;;;3.53;2.00;;;18.60;24.80;;;;;;5098412;28;20278;-54
2021/03/16 08:39:48;;;;;;;4.05;1.60;;;18.70;24.80;;;;;;5095051;28;20656;-55
2021/03/16 08:42:32;;;;;;;3.00;1.90;;;18.70;24.80;;;;;;5113550;27;20178;-55
2021/03/16 08:44:57;;;;;;;3.70;1.98;;;18.70;24.90;;;;;;5106741;27;20961;-56
2021/03/16 08:47:25;;;;;;;3.87;1.73;;;18.70;24.80;;;;;;5101487;28;20161;-56
2021/03/16 08:49:55;;;;;;;4.53;1.95;;;18.80;24.90;;;;;;5108772;28;20180;-56
2021/03/16 08:52:21;;;;;;;2.70;2.33;;;18.80;24.90;;;;;;5099143;28;20177;-55
2021/03/16 08:54:48;;;;;;;3.20;1.77;;;18.80;24.80;;;;;;5102025;27;20187;-54
2021/03/16 08:57:21;;;;;;;3.03;2.45;;;18.80;24.80;;;;;;5097609;28;20878;-55
2021/03/16 08:59:51;;;;;;;4.57;2.40;;;18.90;25.00;;;;;;5100572;28;20651;-57
2021/03/16 09:02:28;;;;;;;3.38;1.83;;;18.90;24.90;;;;;;5098957;28;20173;-56
2021/03/16 09:04:57;;;;;;;2.45;2.05;;;18.90;24.80;;;;;;5099956;28;20205;-56
2021/03/16 09:07:28;;;;;;;4.10;2.30;;;18.90;24.80;;;;;;5093675;28;20214;-54
2021/03/16 09:10:07;;;;;;;4.80;2.20;;;18.90;24.80;;;;;;5101187;28;20176;-55
2021/03/16 09:12:35;;;;;;;4.50;2.40;;;19.00;24.90;;;;;;5092333;28;20530;-55
2021/03/16 09:15:11;;;;;;;2.75;1.58;;;19.00;24.90;;;;;;5074003;28;20184;-54
2021/03/16 09:17:40;;;;;;;4.78;2.30;;;19.00;24.90;;;;;;5095402;28;20206;-56
2021/03/16 09:20:16;;;;;;;2.40;1.85;;;19.00;24.90;;;;;;5112107;28;20636;-55
2021/03/16 09:22:44;;;;;;;4.68;1.80;;;19.00;24.80;;;;;;5090809;28;20258;-56
2021/03/16 09:25:11;;;;;;;4.57;1.98;;;19.00;24.80;;;;;;5106187;28;20334;-55
2021/03/16 09:27:39;;;;;;;3.72;1.60;;;19.00;24.90;;;;;;5097174;28;20158;-54
2021/03/16 09:30:09;;;;;;;1.75;1.50;;;19.00;24.80;;;;;;5076225;28;20632;-55
2021/03/16 09:32:37;;;;;;;5.25;1.92;;;19.00;24.80;;;;;;5098658;28;20181;-56
2021/03/16 09:35:03;;;;;;;3.70;2.25;;;19.00;24.80;;;;;;5094819;28;20181;-54
2021/03/16 09:37:28;;;;;;;3.83;1.70;;;19.10;24.90;;;;;;5094412;28;20185;-54
2021/03/16 09:39:59;;;;;;;5.30;2.90;;;19.10;24.90;;;;;;5101739;28;20455;-53
2021/03/16 09:42:37;;;;;;;3.85;2.22;;;19.10;24.90;;;;;;5096739;28;20185;-54
2021/03/16 09:45:05;;;;;;;3.05;1.73;;;19.10;24.80;;;;;;5095947;28;20288;-53
2021/03/16 09:47:32;;;;;;;3.83;2.33;;;19.10;24.80;;;;;;5096658;28;20271;-54
2021/03/16 09:50:08;;;;;;;3.15;1.80;;;19.10;24.80;;;;;;5099724;28;20174;-55
2021/03/16 09:52:34;;;;;;;2.63;1.88;;;19.20;24.90;;;;;;5125400;27;20164;-56
2021/03/16 09:55:03;;;;;;;2.20;1.43;;;19.20;24.90;;;;;;5101441;28;20181;-56
2021/03/16 09:57:34;;;;;;;3.67;2.30;;;19.20;24.90;;;;;;5119857;27;20639;-55
2021/03/16 10:00:00;;;;;;;3.70;1.60;;;19.20;24.80;;;;;;5115175;28;20173;-58
2021/03/16 10:02:41;;;;;;;2.03;1.73;;;19.20;24.80;;;;;;5117076;27;20177;-57
2021/03/16 10:05:18;;;;;;;3.92;1.60;;;20.40;26.20;;;;;;5112877;28;20461;-55
2021/03/16 10:07:51;;;;;;;1.73;1.60;;;19.20;24.80;;;;;;5107395;28;20196;-56
2021/03/16 10:10:21;;;;;;;2.00;1.65;;;19.20;25.40;;;;;;5096949;28;20162;-57
2021/03/16 10:13:02;;;;;;;3.40;1.67;;;19.20;24.80;;;;;;5099823;28;20289;-57
2021/03/16 10:15:40;;;;;;;2.78;1.90;;;19.30;24.90;;;;;;5093591;27;20259;-57
2021/03/16 10:18:09;;;;;;;2.15;1.58;;;19.30;24.80;;;;;;5100160;28;20188;-57
2021/03/16 10:20:49;;;;;;;4.85;1.85;;;19.30;24.70;;;;;;5100065;27;20244;-57
2021/03/16 10:23:25;;;;;;;3.20;1.45;;;19.30;24.60;;;;;;5108343;27;20272;-57
2021/03/16 10:25:55;;;;;;;3.30;1.52;;;19.30;25.30;;;;;;5094708;28;20179;-56
2021/03/16 10:28:40;;;;;;;2.83;1.95;;;19.30;24.80;;;;;;5103513;28;20172;-57
2021/03/16 10:31:22;;;;;;;2.28;1.35;;;19.30;24.80;;;;;;5092973;27;20217;-56
2021/03/16 10:33:55;;;;;;;2.65;1.77;;;19.30;24.80;;;;;;5102639;28;20308;-56
2021/03/16 10:36:21;;;;;;;4.50;1.90;;;19.30;24.70;;;;;;5100974;28;20201;-56
2021/03/16 10:38:51;;;;;;;2.42;1.48;;;19.40;24.80;;;;;;5101015;27;20181;-56
2021/03/16 10:41:20;;;;;;;6.15;2.00;;;19.40;24.80;;;;;;5100864;28;20684;-56
2021/03/16 10:43:46;;;;;;;1.55;1.40;;;19.40;24.80;;;;;;5105932;28;20220;-57
2021/03/16 10:46:13;;;;;;;2.10;1.55;;;19.40;24.80;;;;;;5078765;28;20195;-56
2021/03/16 10:48:39;;;;;;;2.50;1.85;;;19.40;24.70;;;;;;5104142;28;20672;-55
2021/03/16 10:51:05;;;;;;;5.60;1.95;;;19.40;24.70;;;;;;5106625;28;20590;-56
2021/03/16 10:53:31;;;;;;;3.75;2.00;;;19.50;24.80;;;;;;5099685;28;20195;-55
2021/03/16 10:55:57;;;;;;;3.23;2.10;;;19.50;24.80;;;;;;5098292;28;20169;-56
2021/03/16 10:58:22;;;;;;;4.47;2.00;;;19.50;24.80;;;;;;5098782;28;20695;-56
2021/03/16 11:00:48;;;;;;;2.70;1.60;;;19.50;25.40;;;;;;5115027;27;20207;-56
2021/03/16 11:03:14;;;;;;;3.10;1.40;;;19.50;24.80;;;;;;5111005;27;20172;-55
2021/03/16 11:05:40;;;;;;;4.60;1.70;;;19.50;24.90;;;;;;5110376;28;20204;-56
2021/03/16 11:08:05;;;;;;;2.80;1.40;;;19.50;24.90;;;;;;5107595;28;20173;-56
2021/03/16 11:10:31;;;;;;;3.23;1.80;;;19.50;24.90;;;;;;5111201;27;20233;-56
2021/03/16 11:12:59;;;;;;;2.70;1.77;;;19.50;24.80;;;;;;5109082;28;20180;-56
2021/03/16 11:15:28;;;;;;;6.25;2.17;;;19.50;24.70;;;;;;5081725;28;20983;-57
2021/03/16 11:17:53;;;;;;;1.98;1.52;;;19.50;24.70;;;;;;5100178;28;20185;-56
2021/03/16 11:20:19;;;;;;;2.17;1.50;;;19.50;25.30;;;;;;5099358;28;20237;-56
2021/03/16 11:22:47;;;;;;;2.03;1.50;;;19.50;24.80;;;;;;5109537;27;20220;-56
2021/03/16 11:25:15;;;;;;;2.83;1.50;;;19.50;24.80;;;;;;5109007;28;20648;-56
2021/03/16 11:27:41;;;;;;;2.10;1.52;;;19.50;24.90;;;;;;5087340;28;20186;-56
2021/03/16 11:30:08;;;;;;;2.10;1.60;;;19.50;24.90;;;;;;5097471;28;20662;-55
2021/03/16 11:32:35;;;;;;;4.07;2.00;;;19.50;25.00;;;;;;5100350;28;20423;-55
2021/03/16 11:35:02;;;;;;;3.95;2.20;;;19.50;25.00;;;;;;5099941;27;20200;-57
2021/03/16 11:37:27;;;;;;;5.80;2.50;;;19.60;25.20;;;;;;5105045;28;20578;-56
2021/03/16 11:39:54;;;;;;;4.20;2.50;;;19.60;25.30;;;;;;5109394;28;20169;-54
2021/03/16 11:42:20;;;;;;;7.60;2.70;;;19.60;25.20;;;;;;5109249;28;20273;-54
2021/03/16 11:44:45;;;;;;;5.03;2.63;;;19.50;25.10;;;;;;5103470;28;20264;-55
2021/03/16 11:47:11;;;;;;;3.63;2.00;;;19.60;25.30;;;;;;5103586;27;20409;-56
2021/03/16 11:49:37;;;;;;;3.30;2.53;;;19.60;25.50;;;;;;5108781;27;20189;-55
2021/03/16 11:52:04;;;;;;;5.40;3.07;;;19.60;25.50;;;;;;5083737;28;20181;-55
2021/03/16 11:54:29;;;;;;;4.40;2.85;;;19.60;25.60;;;;;;5109251;28;20480;-55
2021/03/16 11:56:55;;;;;;;3.03;2.73;;;19.60;25.60;;;;;;5094465;28;20168;-56
2021/03/16 11:59:21;;;;;;;5.53;2.90;;;19.60;25.70;;;;;;5104277;28;20204;-56
2021/03/16 12:01:46;;;;;;;5.37;3.47;;;19.60;25.90;;;;;;5102071;28;20173;-56
2021/03/16 12:04:15;;;;;;;6.73;3.40;;;19.60;26.10;;;;;;5105387;28;20216;-55
2021/03/16 12:06:43;;;;;;;7.85;3.65;;;19.60;26.00;;;;;;5113441;28;20173;-54
2021/03/16 12:09:09;;;;;;;8.55;3.40;;;19.70;26.00;;;;;;5099213;28;20181;-55
2021/03/16 12:11:35;;;;;;;5.10;2.45;;;19.70;26.00;;;;;;5113665;28;20183;-55
2021/03/16 12:14:01;;;;;;;9.93;3.77;;;19.60;26.00;;;;;;5105926;28;20284;-56
2021/03/16 12:16:29;;;;;;;7.13;4.18;;;19.60;25.90;;;;;;5106460;28;20211;-55
2021/03/16 12:18:55;;;;;;;7.63;3.97;;;19.70;26.10;;;;;;5110348;28;20229;-55
2021/03/16 12:21:23;;;;;;;8.00;3.40;;;19.70;26.10;;;;;;5112714;28;20233;-55
2021/03/16 12:23:48;;;;;;;8.60;3.80;;;19.80;26.20;;;;;;5112686;28;20245;-54
2021/03/16 12:26:15;;;;;;;7.03;3.47;;;19.80;26.20;;;;;;5110853;28;20172;-54
2021/03/16 12:28:41;;;;;;;9.85;3.60;;;19.90;26.00;;;;;;5112134;28;20567;-56
2021/03/16 12:31:07;;;;;;;9.40;3.87;;;20.00;25.90;;;;;;5112578;28;20247;-55
2021/03/16 12:33:32;;;;;;;7.10;3.70;;;20.10;25.60;;;;;;5111543;28;20576;-55
2021/03/16 12:35:58;;;;;;;7.27;2.80;;;20.20;25.60;;;;;;5111430;28;20627;-57
2021/03/16 12:38:23;;;;;;;4.87;3.60;;;20.30;25.90;;;;;;5111261;28;20168;-56
2021/03/16 12:40:49;;;;;;;6.87;3.67;;;20.40;25.10;;;;;;5113047;28;20203;-56
2021/03/16 12:43:16;;;;;;;4.73;3.30;;;20.50;25.00;;;;;;5112464;28;20620;-57
2021/03/16 12:45:44;;;;;;;5.40;3.33;;;20.50;24.60;;;;;;5111911;28;20165;-56
2021/03/16 12:48:10;;;;;;;4.65;3.28;;;20.60;24.60;;;;;;5110601;28;20158;-56
2021/03/16 12:50:36;;;;;;;5.40;3.17;;;20.60;24.60;;;;;;5101712;27;20185;-57
2021/03/16 12:53:04;;;;;;;4.25;2.65;;;20.70;24.60;;;;;;5094166;28;20400;-56
2021/03/16 12:55:32;;;;;;;5.72;3.63;;;20.70;24.60;;;;;;5112432;28;20153;-56